Corinthiakos — A8UL2 — position and weather

sailwx.info

Track history (hours):
 
Tides and Currents Weather Stations Pressure Air Temp Water Temp Dewpoint Dewpoint Depression Visibility Wind Speed Wind Dir Waves Ship Positions

Corinthiakos

Last reported at 2016-Sep-26 02:09 UTC. Time now 2016-Sep-28 03:31 UTC.
Position N 22°27' E 119°43'.

Length 262 m; draft 10.3 m.

Type: Cargo ship. MMSI: 636014516.

Date/timePositionNaut miles runAvg speedWind from/ knotsBaromVisibWave heightAir tempDewpointWater temp
2016-Sep-26 02:09N 22°27' E 119°43'1013.5
2016-Sep-26 01:26N 22°29' E 119°54'1214.0
2016-Sep-26 00:33N 22°31' E 120°07'12 4.1
2016-Sep-25 21:33N 22°33' E 120°20'0 0.0
2016-Sep-25 17:22N 22°33' E 120°20'0 0.0
2016-Sep-25 15:33N 22°33' E 120°20'0 0.0
2016-Sep-25 14:17N 22°33' E 120°20'0 0.0
2016-Sep-25 12:24N 22°33' E 120°20'0 0.0
2016-Sep-25 11:32N 22°33' E 120°20'0 0.0
2016-Sep-25 07:32N 22°33' E 120°20'0 0.0
2016-Sep-25 04:33N 22°33' E 120°20'10 2.6
2016-Sep-25 00:33N 22°31' E 120°09'2813.6
2016-Sep-24 22:30N 22°23' E 119°40'  
2016-Sep-21 05:33N 01°14' E 103°57'7 3.4
2016-Sep-21 03:29N 01°16' E 103°51'0 0.0
2016-Sep-21 02:32N 01°16' E 103°51'1 0.1
2016-Sep-20 17:33N 01°15' E 103°51'10014.4
2016-Sep-20 10:34N 01°52' E 102°18'  
Track history (hours):
 
Tides and Currents Weather Stations Pressure Air Temp Water Temp Dewpoint Dewpoint Depression Visibility Wind Speed Wind Dir Waves Ship Positions

Corinthiakos

Last reported at 2016-Sep-26 02:09 UTC. Time now 2016-Sep-28 03:31 UTC.
Position N 22°27' E 119°43'.

Length 262 m; draft 10.3 m.

Type: Cargo ship. MMSI: 636014516.

Date/timePositionNaut miles runAvg speedWind from/ knotsBaromVisibWave heightAir tempDewpointWater temp
2016-Sep-26 02:09N 22°27' E 119°43'1013.5
2016-Sep-26 01:26N 22°29' E 119°54'1214.0
2016-Sep-26 00:33N 22°31' E 120°07'12 4.1
2016-Sep-25 21:33N 22°33' E 120°20'0 0.0
2016-Sep-25 17:22N 22°33' E 120°20'0 0.0
2016-Sep-25 15:33N 22°33' E 120°20'0 0.0
2016-Sep-25 14:17N 22°33' E 120°20'0 0.0
2016-Sep-25 12:24N 22°33' E 120°20'0 0.0
2016-Sep-25 11:32N 22°33' E 120°20'0 0.0
2016-Sep-25 07:32N 22°33' E 120°20'0 0.0
2016-Sep-25 04:33N 22°33' E 120°20'10 2.6
2016-Sep-25 00:33N 22°31' E 120°09'2813.6
2016-Sep-24 22:30N 22°23' E 119°40'  
2016-Sep-21 05:33N 01°14' E 103°57'7 3.4
2016-Sep-21 03:29N 01°16' E 103°51'0 0.0
2016-Sep-21 02:32N 01°16' E 103°51'1 0.1
2016-Sep-20 17:33N 01°15' E 103°51'10014.4
2016-Sep-20 10:34N 01°52' E 102°18'  

Dump ship's entire track history